createdAt,value
2023-10-30T00:00:29.709Z,14.37
2023-10-30T00:03:41.587Z,14.26
2023-10-30T00:07:16.072Z,14.27
2023-10-30T00:10:24.078Z,14.22
2023-10-30T00:13:29.681Z,14.05
2023-10-30T00:16:34.867Z,13.91
2023-10-30T00:19:42.492Z,13.88
2023-10-30T00:22:52.147Z,13.79
2023-10-30T00:26:03.410Z,13.66
2023-10-30T00:29:20.408Z,13.64
2023-10-30T00:32:29.683Z,13.65
2023-10-30T00:35:32.650Z,13.45
2023-10-30T00:38:44.526Z,13.43
2023-10-30T00:41:54.454Z,13.35
2023-10-30T00:45:04.493Z,13.43
2023-10-30T00:48:07.403Z,13.34
2023-10-30T00:51:16.697Z,13.29
2023-10-30T00:54:28.679Z,13.22
2023-10-30T00:57:37.270Z,13.37
2023-10-30T01:00:49.851Z,13.22
2023-10-30T01:03:52.727Z,13.15
2023-10-30T01:07:04.790Z,13.24
2023-10-30T01:10:10.751Z,13.13
2023-10-30T01:13:27.148Z,13.16
2023-10-30T01:16:32.317Z,13.09
2023-10-30T01:19:36.454Z,13.03
2023-10-30T01:22:38.986Z,12.93
2023-10-30T01:25:48.598Z,13.04
2023-10-30T01:28:54.015Z,12.99
2023-10-30T01:32:07.213Z,13.03
2023-10-30T01:35:12.933Z,12.93
2023-10-30T01:38:22.100Z,12.97
2023-10-30T01:41:27.813Z,12.88
2023-10-30T01:44:34.754Z,12.94
2023-10-30T01:47:41.142Z,12.90
2023-10-30T01:50:51.607Z,12.85
2023-10-30T01:54:01.325Z,12.86
2023-10-30T01:57:08.425Z,12.92
2023-10-30T02:00:25.807Z,12.75
2023-10-30T02:03:37.234Z,12.81
2023-10-30T02:06:43.279Z,12.86
2023-10-30T02:09:51.647Z,13.04
2023-10-30T02:12:57.881Z,13.05
2023-10-30T02:16:03.175Z,12.97
2023-10-30T02:19:28.274Z,12.95
2023-10-30T02:22:38.762Z,12.90
2023-10-30T02:25:43.645Z,12.99
2023-10-30T02:32:07.771Z,12.99
2023-10-30T02:35:15.667Z,12.97
2023-10-30T02:38:20.979Z,12.86
2023-10-30T02:41:33.044Z,12.76
2023-10-30T02:44:53.291Z,12.75
2023-10-30T02:48:01.441Z,12.85
2023-10-30T02:51:06.853Z,12.72
2023-10-30T02:54:22.126Z,12.68
2023-10-30T02:57:27.550Z,12.80
2023-10-30T03:00:36.225Z,12.70
2023-10-30T03:03:40.867Z,12.61
2023-10-30T03:06:49.518Z,12.72
2023-10-30T03:10:00.624Z,12.68
2023-10-30T03:13:06.925Z,12.70
2023-10-30T03:16:11.910Z,12.76
2023-10-30T03:19:28.620Z,12.72
2023-10-30T03:22:33.545Z,12.65
2023-10-30T03:25:45.003Z,12.66
2023-10-30T03:28:59.122Z,12.71
2023-10-30T03:32:04.617Z,12.66
2023-10-30T03:35:07.337Z,12.64
2023-10-30T03:38:17.312Z,12.52
2023-10-30T03:41:22.200Z,12.64
2023-10-30T03:44:31.559Z,12.64
2023-10-30T03:47:36.723Z,12.66
2023-10-30T03:50:43.914Z,12.54
2023-10-30T03:53:51.099Z,12.44
2023-10-30T03:57:09.868Z,12.49
2023-10-30T04:00:17.895Z,12.38
2023-10-30T04:03:23.912Z,12.39
2023-10-30T04:06:26.395Z,12.30
2023-10-30T04:12:56.618Z,12.25
2023-10-30T04:16:18.467Z,12.27
2023-10-30T04:19:29.716Z,12.35
2023-10-30T04:22:43.897Z,12.36
2023-10-30T04:25:46.316Z,12.34
2023-10-30T04:29:06.843Z,12.36
2023-10-30T04:32:15.122Z,12.32
2023-10-30T04:35:19.442Z,12.36
2023-10-30T04:38:25.797Z,12.20
2023-10-30T04:41:33.557Z,12.26
2023-10-30T04:44:39.594Z,12.23
2023-10-30T04:47:48.050Z,12.18
2023-10-30T04:50:51.803Z,12.16
2023-10-30T04:54:00.044Z,12.23
2023-10-30T04:57:09.064Z,12.27
2023-10-30T05:00:19.636Z,12.25
2023-10-30T05:03:22.214Z,12.26
2023-10-30T05:06:25.246Z,12.30
2023-10-30T05:09:31.665Z,12.40
2023-10-30T05:12:39.789Z,12.46
2023-10-30T05:15:43.680Z,12.52
2023-10-30T05:18:55.668Z,12.52
2023-10-30T05:21:59.795Z,12.65
2023-10-30T05:25:14.158Z,12.61
2023-10-30T05:28:24.285Z,12.67
2023-10-30T05:31:28.770Z,12.74
2023-10-30T05:34:41.926Z,12.69
2023-10-30T05:37:57.726Z,12.72
2023-10-30T05:41:05.895Z,12.75
2023-10-30T05:44:17.218Z,12.79
2023-10-30T05:47:19.815Z,12.92
2023-10-30T05:50:32.229Z,12.84
2023-10-30T05:53:40.685Z,12.86
2023-10-30T05:56:58.958Z,12.96
2023-10-30T06:00:11.208Z,13.02
2023-10-30T06:03:20.775Z,13.12
2023-10-30T06:06:28.236Z,13.15
2023-10-30T06:09:37.334Z,13.24
2023-10-30T06:12:46.939Z,13.40
2023-10-30T06:15:54.820Z,13.43
2023-10-30T06:18:59.320Z,13.50
2023-10-30T06:22:08.635Z,13.53
2023-10-30T06:25:12.273Z,13.52
2023-10-30T06:28:23.082Z,13.64
2023-10-30T06:31:26.570Z,13.69
2023-10-30T06:34:41.360Z,13.77
2023-10-30T06:37:54.455Z,13.82
2023-10-30T06:40:57.272Z,13.79
2023-10-30T06:44:01.389Z,13.82
2023-10-30T06:47:06.340Z,13.86
2023-10-30T06:50:20.154Z,13.91
2023-10-30T06:53:36.029Z,13.97
2023-10-30T06:56:50.485Z,14.12
2023-10-30T07:00:03.193Z,14.11
2023-10-30T07:03:07.299Z,14.06
2023-10-30T07:06:19.598Z,14.11
2023-10-30T07:09:27.576Z,14.12
2023-10-30T07:12:36.253Z,14.22
2023-10-30T07:15:47.269Z,14.41
2023-10-30T07:18:59.607Z,15.08
2023-10-30T07:22:07.703Z,15.42
2023-10-30T07:25:20.559Z,15.52
2023-10-30T07:28:25.862Z,15.26
2023-10-30T07:31:33.766Z,15.52
2023-10-30T07:34:38.123Z,16.10
2023-10-30T07:37:43.898Z,16.20
2023-10-30T07:40:53.640Z,16.18
2023-10-30T07:44:01.793Z,15.89
2023-10-30T07:47:06.334Z,16.30
2023-10-30T07:50:25.128Z,16.72
2023-10-30T07:53:27.941Z,17.63
2023-10-30T07:56:39.214Z,17.17
2023-10-30T07:59:46.462Z,17.49
2023-10-30T08:02:54.146Z,17.33
2023-10-30T08:06:36.168Z,17.14
2023-10-30T08:09:44.437Z,16.91
2023-10-30T08:12:56.893Z,16.87
2023-10-30T08:16:16.917Z,17.08
2023-10-30T08:19:27.095Z,16.93
2023-10-30T08:22:44.881Z,17.20
2023-10-30T08:25:54.863Z,17.24
2023-10-30T08:29:02.540Z,17.28
2023-10-30T08:32:09.026Z,17.38
2023-10-30T08:35:14.152Z,17.49
2023-10-30T08:38:21.282Z,17.68
2023-10-30T08:41:28.992Z,17.88
2023-10-30T08:44:36.031Z,18.42
2023-10-30T08:47:48.667Z,18.29
2023-10-30T08:50:54.939Z,18.37
2023-10-30T08:54:00.570Z,18.55
2023-10-30T08:57:17.052Z,18.57
2023-10-30T09:00:26.127Z,18.72
2023-10-30T09:03:35.959Z,18.94
2023-10-30T09:06:44.724Z,19.00
2023-10-30T09:09:57.053Z,18.37
2023-10-30T09:13:21.851Z,18.63
2023-10-30T09:16:28.367Z,18.84
2023-10-30T09:19:30.812Z,19.52
2023-10-30T09:22:45.969Z,19.66
2023-10-30T09:25:51.038Z,20.19
2023-10-30T09:28:55.989Z,20.15
2023-10-30T09:32:00.853Z,20.05
2023-10-30T09:35:06.143Z,20.94
2023-10-30T09:38:11.209Z,21.34
2023-10-30T09:41:25.694Z,21.25
2023-10-30T09:44:29.415Z,21.88
2023-10-30T09:47:44.082Z,21.48
2023-10-30T09:50:52.396Z,21.86
2023-10-30T09:54:03.089Z,21.23
2023-10-30T09:57:08.445Z,20.64
2023-10-30T10:00:15.231Z,21.21
2023-10-30T10:03:25.364Z,22.02
2023-10-30T10:06:39.204Z,21.80
2023-10-30T10:10:02.575Z,22.16
2023-10-30T10:13:09.078Z,21.82
2023-10-30T10:16:31.403Z,21.84
2023-10-30T10:19:40.716Z,22.59
2023-10-30T10:22:49.538Z,22.58
2023-10-30T10:25:59.558Z,22.10
2023-10-30T10:29:05.863Z,22.26
2023-10-30T10:32:08.282Z,22.72
2023-10-30T10:35:15.284Z,22.36
2023-10-30T10:38:24.639Z,22.10
2023-10-30T10:41:37.555Z,22.45
2023-10-30T10:44:40.046Z,23.23
2023-10-30T10:47:43.017Z,21.87
2023-10-30T10:50:58.983Z,21.63
2023-10-30T10:54:25.481Z,21.41
2023-10-30T10:57:42.450Z,21.37
2023-10-30T11:00:50.066Z,21.09
2023-10-30T11:03:54.069Z,20.88
2023-10-30T11:07:07.599Z,20.98
2023-10-30T11:10:35.600Z,21.58
2023-10-30T11:13:45.042Z,21.43
2023-10-30T11:17:02.659Z,22.39
2023-10-30T11:20:12.040Z,22.04
2023-10-30T11:23:37.250Z,21.79
2023-10-30T11:26:47.655Z,22.31
2023-10-30T11:30:00.330Z,23.16
2023-10-30T11:33:08.929Z,23.76
2023-10-30T11:36:22.795Z,23.27
2023-10-30T11:39:32.598Z,22.32
2023-10-30T11:42:41.742Z,22.05
2023-10-30T11:45:53.396Z,22.03
2023-10-30T11:48:58.552Z,21.51
2023-10-30T11:52:16.527Z,22.25
2023-10-30T11:55:21.081Z,22.47
2023-10-30T11:58:28.656Z,23.44
2023-10-30T12:01:36.236Z,22.91
2023-10-30T12:04:48.567Z,22.05
2023-10-30T12:07:53.291Z,22.40
2023-10-30T12:11:00.887Z,22.01
2023-10-30T12:14:08.699Z,21.42
2023-10-30T12:17:18.539Z,21.08
2023-10-30T12:20:25.348Z,20.97
2023-10-30T12:23:30.693Z,21.04
2023-10-30T12:26:46.730Z,21.12
2023-10-30T12:30:01.067Z,21.01
2023-10-30T12:33:16.430Z,21.37
2023-10-30T12:36:40.370Z,21.11
2023-10-30T12:40:06.753Z,21.35
2023-10-30T12:43:32.495Z,21.45
2023-10-30T12:46:45.666Z,21.22
2023-10-30T12:49:49.129Z,21.27
2023-10-30T12:52:54.643Z,21.28
2023-10-30T12:56:07.303Z,21.16
2023-10-30T12:59:14.933Z,21.06
2023-10-30T13:02:26.474Z,21.16
2023-10-30T13:05:37.766Z,20.96
2023-10-30T13:08:43.479Z,21.29
2023-10-30T13:11:46.216Z,21.09
2023-10-30T13:14:54.796Z,21.16
2023-10-30T13:18:01.533Z,20.98
2023-10-30T13:21:17.239Z,20.91
2023-10-30T13:24:22.743Z,20.90
2023-10-30T13:27:31.732Z,20.81
2023-10-30T13:30:44.305Z,20.68
2023-10-30T13:33:59.318Z,20.58
2023-10-30T13:37:02.734Z,20.45
2023-10-30T13:40:17.776Z,20.43
2023-10-30T13:43:21.098Z,20.44
2023-10-30T13:46:36.214Z,20.28
2023-10-30T13:49:49.040Z,20.22
2023-10-30T13:52:52.069Z,20.22
2023-10-30T13:56:18.618Z,20.13
2023-10-30T13:59:28.675Z,20.08
2023-10-30T14:02:31.102Z,20.05
2023-10-30T14:05:36.033Z,20.01
2023-10-30T14:08:44.055Z,20.09
2023-10-30T14:11:55.772Z,20.03
2023-10-30T14:15:02.857Z,20.01
2023-10-30T14:18:20.846Z,20.23
2023-10-30T14:21:29.151Z,20.12
2023-10-30T14:24:40.030Z,20.02
2023-10-30T14:27:47.452Z,19.96
2023-10-30T14:30:51.490Z,20.04
2023-10-30T14:34:00.007Z,20.05
2023-10-30T14:37:09.646Z,20.55
2023-10-30T14:40:17.578Z,20.12
2023-10-30T14:43:27.180Z,19.97
2023-10-30T14:46:35.984Z,19.60
2023-10-30T14:49:38.822Z,19.44
2023-10-30T14:52:41.386Z,19.37
2023-10-30T14:55:46.732Z,19.18
2023-10-30T14:58:57.978Z,19.09
2023-10-30T15:02:09.285Z,18.91
2023-10-30T15:05:13.815Z,18.91
2023-10-30T15:08:27.950Z,18.82
2023-10-30T15:11:37.651Z,18.77
2023-10-30T15:14:43.261Z,18.73
2023-10-30T15:17:54.881Z,18.52
2023-10-30T15:21:06.946Z,18.40
2023-10-30T15:24:17.556Z,18.17
2023-10-30T15:27:28.794Z,18.21
2023-10-30T15:30:34.915Z,18.10
2023-10-30T15:33:43.756Z,18.14
2023-10-30T15:36:53.897Z,17.92
2023-10-30T15:40:04.782Z,17.91
2023-10-30T15:43:21.662Z,17.58
2023-10-30T15:46:27.457Z,17.82
2023-10-30T15:49:38.819Z,17.63
2023-10-30T15:59:15.000Z,17.36
2023-10-30T16:02:26.044Z,17.37
2023-10-30T16:05:47.506Z,17.30
2023-10-30T16:09:16.433Z,17.39
2023-10-30T16:12:25.367Z,17.30
2023-10-30T16:15:32.647Z,17.31
2023-10-30T16:21:50.514Z,17.23
2023-10-30T16:24:53.445Z,17.52
2023-10-30T16:27:59.272Z,17.32
2023-10-30T16:31:06.845Z,17.29
2023-10-30T16:34:14.079Z,17.53
2023-10-30T16:37:19.437Z,17.23
2023-10-30T16:40:27.840Z,17.20
2023-10-30T16:43:31.717Z,17.35
2023-10-30T16:46:40.779Z,17.14
2023-10-30T16:49:52.827Z,17.25
2023-10-30T16:53:01.177Z,17.12
2023-10-30T16:56:05.885Z,17.14
2023-10-30T16:59:12.700Z,17.21
2023-10-30T17:02:18.506Z,17.15
2023-10-30T17:05:23.649Z,17.03
2023-10-30T17:08:37.003Z,17.15
2023-10-30T17:11:39.939Z,16.94
2023-10-30T17:14:44.779Z,16.81
2023-10-30T17:18:03.722Z,16.91
2023-10-30T17:21:08.163Z,16.62
2023-10-30T17:24:31.562Z,16.48
2023-10-30T17:27:35.164Z,16.34
2023-10-30T17:30:37.532Z,16.15
2023-10-30T17:33:47.564Z,16.10
2023-10-30T17:36:55.714Z,15.99
2023-10-30T17:40:02.835Z,16.00
2023-10-30T17:43:08.486Z,15.94
2023-10-30T17:46:16.947Z,15.90
2023-10-30T17:49:33.981Z,15.70
2023-10-30T17:52:41.113Z,15.46
2023-10-30T17:55:48.658Z,15.33
2023-10-30T17:58:55.773Z,15.07
2023-10-30T18:02:00.173Z,15.07
2023-10-30T18:05:15.157Z,15.03
2023-10-30T18:08:24.207Z,14.90
2023-10-30T18:11:30.675Z,14.85
2023-10-30T18:14:38.858Z,14.70
2023-10-30T18:17:44.781Z,14.70
2023-10-30T18:20:51.469Z,14.51
2023-10-30T18:24:06.768Z,14.53
2023-10-30T18:27:14.787Z,14.53
2023-10-30T18:30:20.663Z,14.40
2023-10-30T18:33:33.483Z,14.45
2023-10-30T18:36:54.377Z,14.41
2023-10-30T18:39:58.488Z,14.17
2023-10-30T18:43:07.954Z,14.12
2023-10-30T18:46:22.618Z,14.07
2023-10-30T18:49:26.921Z,13.95
2023-10-30T18:52:42.538Z,14.00
2023-10-30T18:55:51.973Z,14.01
2023-10-30T18:58:55.450Z,13.96
2023-10-30T19:02:04.945Z,13.87
2023-10-30T19:05:07.897Z,13.74
2023-10-30T19:08:17.565Z,13.67
2023-10-30T19:11:31.022Z,13.58
2023-10-30T19:14:44.707Z,13.51
2023-10-30T19:17:59.108Z,13.42
2023-10-30T19:21:01.833Z,13.38
2023-10-30T19:24:07.893Z,13.26
2023-10-30T19:27:12.689Z,13.32
2023-10-30T19:30:24.760Z,13.22
2023-10-30T19:33:30.590Z,13.19
2023-10-30T19:36:40.380Z,13.06
2023-10-30T19:39:54.976Z,13.09
2023-10-30T19:43:06.800Z,13.10
2023-10-30T19:46:17.368Z,13.06
2023-10-30T19:49:29.069Z,12.96
2023-10-30T19:52:31.598Z,13.13
2023-10-30T19:55:39.159Z,13.05
2023-10-30T19:58:47.099Z,13.05
2023-10-30T20:02:02.195Z,12.98
2023-10-30T20:05:05.315Z,12.82
2023-10-30T20:08:07.960Z,12.69
2023-10-30T20:11:16.852Z,12.63
2023-10-30T20:14:29.791Z,12.68
2023-10-30T20:17:45.326Z,12.87
2023-10-30T20:20:52.638Z,12.83
2023-10-30T20:23:59.608Z,12.84
2023-10-30T20:27:11.513Z,12.85
2023-10-30T20:30:33.628Z,12.97
2023-10-30T20:33:42.852Z,13.07
2023-10-30T20:37:00.422Z,13.16
2023-10-30T20:40:26.247Z,13.24
2023-10-30T20:43:32.143Z,13.41
2023-10-30T20:46:55.262Z,13.38
2023-10-30T20:50:06.881Z,13.41
2023-10-30T20:53:19.482Z,13.32
2023-10-30T20:56:26.828Z,13.36
2023-10-30T20:59:34.574Z,13.23
2023-10-30T21:02:42.051Z,13.14
2023-10-30T21:05:47.271Z,13.35
2023-10-30T21:08:49.840Z,13.15
2023-10-30T21:11:53.632Z,13.28
2023-10-30T21:15:01.783Z,13.40
2023-10-30T21:18:10.224Z,13.32
2023-10-30T21:21:16.731Z,13.43
2023-10-30T21:24:21.206Z,13.40
2023-10-30T21:30:47.278Z,13.34
2023-10-30T21:33:52.666Z,13.34
2023-10-30T21:36:58.409Z,13.31
2023-10-30T21:40:03.356Z,13.39
2023-10-30T21:43:10.395Z,13.20
2023-10-30T21:46:33.170Z,13.08
2023-10-30T21:49:40.636Z,13.01
2023-10-30T21:52:47.740Z,12.87
2023-10-30T21:56:00.970Z,12.82
2023-10-30T21:59:18.232Z,12.56
2023-10-30T22:02:32.471Z,12.55
2023-10-30T22:05:39.749Z,12.34
2023-10-30T22:08:47.836Z,12.40
2023-10-30T22:12:00.667Z,12.52
2023-10-30T22:15:06.045Z,12.62
2023-10-30T22:18:11.652Z,12.69
2023-10-30T22:21:14.039Z,12.76
2023-10-30T22:24:24.936Z,12.77
2023-10-30T22:27:30.371Z,12.79
2023-10-30T22:30:38.577Z,12.84
2023-10-30T22:33:51.070Z,12.78
2023-10-30T22:37:00.825Z,12.80
2023-10-30T22:40:18.463Z,12.80
2023-10-30T22:43:24.848Z,12.87
2023-10-30T22:46:28.072Z,12.80
2023-10-30T22:49:36.523Z,12.81
2023-10-30T22:52:50.745Z,12.89
2023-10-30T22:55:59.597Z,12.66
2023-10-30T22:59:10.468Z,12.80
2023-10-30T23:02:15.637Z,12.57
2023-10-30T23:05:20.242Z,12.62
2023-10-30T23:08:27.737Z,12.50
2023-10-30T23:11:34.418Z,12.49
2023-10-30T23:14:45.677Z,12.39
2023-10-30T23:17:48.114Z,12.38
2023-10-30T23:20:53.795Z,12.47
2023-10-30T23:24:04.539Z,12.33
2023-10-30T23:27:13.342Z,12.21
2023-10-30T23:30:16.144Z,12.18
2023-10-30T23:33:22.346Z,12.05
2023-10-30T23:36:33.932Z,11.94
2023-10-30T23:39:41.696Z,11.87
2023-10-30T23:42:49.972Z,11.85
2023-10-30T23:46:07.564Z,11.87
2023-10-30T23:49:15.529Z,11.90
2023-10-30T23:52:24.073Z,11.83
2023-10-30T23:55:29.173Z,11.86
2023-10-30T23:58:34.428Z,11.84
